Time;durP1;ratioP1;P1;durP2;ratioP2;P2;SDS_P1;SDS_P2;PMS_P1;PMS_P2;Temp;Humidity;BMP_temperature;BMP_pressure;BME280_temperature;BME280_humidity;BME280_pressure;Samples;Min_cycle;Max_cycle;Signal;HPM_P1;HPM_P2
2021/12/06 00:02:13;;;;;;;37.40;24.83;;;;;;;2.79;80.14;101007.56;5042227;28;20170;-69
2021/12/06 00:04:39;;;;;;;35.33;26.97;;;;;;;3.70;78.13;101003.78;5041160;28;20261;-68
2021/12/06 00:07:08;;;;;;;32.97;24.47;;;;;;;2.56;79.69;101015.13;5034205;28;20769;-68
2021/12/06 00:09:34;;;;;;;38.90;27.03;;;;;;;2.87;79.29;101013.94;5021569;28;20871;-68
2021/12/06 00:12:01;;;;;;;35.10;23.63;;;;;;;2.91;80.62;101018.44;5021410;28;20557;-68
2021/12/06 00:14:36;;;;;;;36.60;24.87;;;;;;;3.09;79.64;101023.50;5020754;28;20221;-68
2021/12/06 00:17:07;;;;;;;33.53;25.10;;;;;;;3.19;79.86;101024.78;5022144;28;20477;-68
2021/12/06 00:19:33;;;;;;;32.23;23.17;;;;;;;2.50;80.08;101027.69;5021159;28;20497;-68
2021/12/06 00:22:00;;;;;;;33.90;23.57;;;;;;;2.70;79.70;101020.88;5021422;28;20844;-70
2021/12/06 00:24:26;;;;;;;36.70;26.03;;;;;;;2.53;80.28;101031.28;5021332;28;20194;-71
2021/12/06 00:26:52;;;;;;;34.60;24.80;;;;;;;3.15;78.15;101028.03;5030607;28;20482;-68
2021/12/06 00:29:18;;;;;;;33.67;24.00;;;;;;;3.41;77.69;101020.56;5041164;28;20421;-69
2021/12/06 00:31:44;;;;;;;36.70;24.60;;;;;;;3.18;78.24;101025.59;5040458;28;20580;-68
2021/12/06 00:34:13;;;;;;;33.40;23.97;;;;;;;3.59;77.12;101020.50;5040529;28;20526;-68
2021/12/06 00:36:41;;;;;;;32.03;24.17;;;;;;;3.11;78.12;101021.00;5040313;28;20202;-69
2021/12/06 00:39:11;;;;;;;39.23;26.17;;;;;;;3.65;77.98;101013.91;5040334;28;20952;-69
2021/12/06 00:41:37;;;;;;;36.70;25.57;;;;;;;3.13;77.16;101016.81;5040493;28;20421;-68
2021/12/06 00:44:02;;;;;;;32.70;25.27;;;;;;;3.42;76.99;101012.03;5040948;28;20794;-68
2021/12/06 00:46:28;;;;;;;36.30;26.20;;;;;;;3.97;75.51;101027.25;5034497;28;20430;-68
2021/12/06 00:48:53;;;;;;;30.97;23.80;;;;;;;3.41;77.23;101029.22;5040146;28;20473;-68
2021/12/06 00:51:19;;;;;;;33.37;24.07;;;;;;;3.37;77.64;101038.50;5040618;28;20596;-69
2021/12/06 00:53:45;;;;;;;33.57;24.50;;;;;;;3.42;76.94;101043.84;5039495;28;20162;-68
2021/12/06 00:56:11;;;;;;;34.30;24.37;;;;;;;3.09;78.36;101048.41;5028709;28;20205;-69
2021/12/06 00:58:36;;;;;;;29.43;22.90;;;;;;;2.99;79.01;101052.22;5040059;28;20417;-68
2021/12/06 01:01:03;;;;;;;36.37;25.43;;;;;;;3.43;77.73;101044.72;5040311;28;20504;-69
2021/12/06 01:03:31;;;;;;;31.60;25.03;;;;;;;3.36;77.75;101044.44;5040337;28;20185;-68
2021/12/06 01:05:57;;;;;;;33.43;24.60;;;;;;;3.09;78.66;101051.84;5037560;28;20391;-68
2021/12/06 01:08:22;;;;;;;32.63;23.67;;;;;;;3.63;77.44;101048.19;5020252;28;20492;-68
2021/12/06 01:10:49;;;;;;;34.00;23.87;;;;;;;3.31;77.52;101048.50;5020473;28;20552;-68
2021/12/06 01:13:14;;;;;;;33.53;24.60;;;;;;;3.81;76.94;101048.94;5019908;28;20198;-69
2021/12/06 01:15:40;;;;;;;31.27;23.73;;;;;;;3.31;77.25;101061.41;5019322;28;20712;-69
2021/12/06 01:18:09;;;;;;;35.03;25.13;;;;;;;3.12;77.37;101070.00;5020664;28;20443;-68
2021/12/06 01:20:41;;;;;;;31.57;23.40;;;;;;;3.71;77.15;101064.84;5020041;28;20171;-67
2021/12/06 01:23:10;;;;;;;36.97;24.70;;;;;;;4.01;75.83;101067.81;5019846;28;20536;-69
2021/12/06 01:34:05;;;;;;;32.20;23.37;;;;;;;4.50;73.97;101086.13;5027045;28;20825;-68
2021/12/06 01:41:42;;;;;;;31.70;24.33;;;;;;;4.09;75.65;101088.78;5039176;28;20413;-68
2021/12/06 01:44:12;;;;;;;34.70;24.20;;;;;;;4.20;74.36;101089.25;5039374;28;20579;-69
2021/12/06 01:46:45;;;;;;;35.40;24.60;;;;;;;4.33;74.20;101091.50;5033115;28;20496;-68
2021/12/06 01:49:11;;;;;;;34.63;24.40;;;;;;;4.60;74.19;101082.22;5019463;28;20576;-68
2021/12/06 01:51:37;;;;;;;38.17;25.33;;;;;;;4.37;74.91;101077.91;5019251;28;20515;-68
2021/12/06 01:54:04;;;;;;;33.60;23.50;;;;;;;4.32;75.54;101082.00;5018840;28;20843;-69
2021/12/06 01:56:30;;;;;;;37.20;25.83;;;;;;;4.29;75.22;101084.47;5022781;28;20261;-68
2021/12/06 01:58:55;;;;;;;38.47;27.90;;;;;;;4.21;75.70;101088.44;5039098;28;20819;-69
2021/12/06 02:01:20;;;;;;;38.40;26.47;;;;;;;4.37;74.27;101080.47;5038473;28;20167;-68
2021/12/06 02:03:46;;;;;;;31.67;24.30;;;;;;;3.91;76.22;101094.06;5039228;28;20532;-68
2021/12/06 02:06:11;;;;;;;39.47;28.00;;;;;;;4.24;75.32;101090.25;5038519;28;20445;-68
2021/12/06 02:08:37;;;;;;;34.97;26.30;;;;;;;3.67;76.04;101096.47;5019218;28;20212;-68
2021/12/06 02:11:03;;;;;;;34.50;26.40;;;;;;;3.83;77.16;101095.41;5019388;28;20182;-67
2021/12/06 02:13:34;;;;;;;38.47;26.00;;;;;;;3.56;77.51;101100.25;5018940;28;20516;-68
2021/12/06 02:16:01;;;;;;;40.27;27.50;;;;;;;4.02;76.03;101094.53;5030224;28;20464;-69
2021/12/06 02:21:31;;;;;;;39.97;26.90;;;;;;;3.82;76.56;101094.53;5038562;28;20420;-68
2021/12/06 02:23:59;;;;;;;36.40;26.60;;;;;;;3.80;76.42;101091.03;5042195;28;20416;-69
2021/12/06 02:26:25;;;;;;;37.97;27.17;;;;;;;3.99;76.72;101079.78;5030156;28;20440;-69
2021/12/06 02:28:51;;;;;;;37.40;25.63;;;;;;;3.67;76.73;101084.47;5021139;28;20426;-68
2021/12/06 02:31:18;;;;;;;37.97;27.10;;;;;;;3.64;77.46;101092.06;5019776;28;20201;-68
2021/12/06 02:33:46;;;;;;;43.27;27.60;;;;;;;4.00;76.69;101081.53;5026956;28;20694;-67
2021/12/06 02:36:11;;;;;;;37.00;27.43;;;;;;;4.28;75.45;101090.44;5038455;28;20454;-68
2021/12/06 02:38:37;;;;;;;39.63;27.93;;;;;;;4.00;76.15;101090.97;5036988;28;20483;-67
2021/12/06 02:41:03;;;;;;;40.23;29.23;;;;;;;4.08;76.70;101102.50;5038489;28;20182;-68
2021/12/06 02:43:30;;;;;;;37.30;26.63;;;;;;;4.22;75.99;101105.66;5037414;28;20258;-68
2021/12/06 02:45:55;;;;;;;39.70;27.77;;;;;;;3.96;75.81;101104.56;5039031;28;20194;-67
2021/12/06 02:48:21;;;;;;;37.00;27.50;;;;;;;3.77;76.12;101110.66;5038375;28;20447;-68
2021/12/06 02:50:52;;;;;;;38.77;27.50;;;;;;;3.99;75.95;101107.28;5038120;28;20189;-68
2021/12/06 02:53:20;;;;;;;37.80;26.90;;;;;;;3.81;76.00;101104.81;5038419;28;20224;-68
2021/12/06 02:55:53;;;;;;;37.17;26.87;;;;;;;3.67;76.85;101102.50;5018792;28;20437;-68
2021/12/06 03:01:11;;;;;;;38.20;27.23;;;;;;;3.53;76.66;101106.16;5038337;28;20417;-68
2021/12/06 03:03:37;;;;;;;39.40;27.73;;;;;;;3.51;77.15;101115.53;5038440;28;20703;-68
2021/12/06 03:06:03;;;;;;;41.23;27.70;;;;;;;3.60;77.55;101105.63;5038771;28;20444;-68
2021/12/06 03:08:40;;;;;;;39.07;27.87;;;;;;;3.28;77.45;101111.94;5040123;28;20424;-68
2021/12/06 03:11:12;;;;;;;39.40;27.33;;;;;;;3.32;77.63;101111.25;5039736;28;20166;-67
2021/12/06 03:13:38;;;;;;;37.73;27.33;;;;;;;3.33;78.07;101121.63;5038063;28;20829;-68
2021/12/06 03:16:04;;;;;;;37.10;27.30;;;;;;;3.32;76.96;101117.28;5022692;28;20416;-67
2021/12/06 03:18:29;;;;;;;38.30;27.40;;;;;;;2.90;78.97;101122.25;5006976;28;20841;-69
2021/12/06 03:20:54;;;;;;;38.50;26.30;;;;;;;3.05;78.17;101122.06;5026179;28;20178;-69
2021/12/06 03:23:20;;;;;;;38.33;27.30;;;;;;;2.91;78.65;101121.44;5026398;28;20171;-68
2021/12/06 03:25:45;;;;;;;37.53;27.63;;;;;;;2.90;79.75;101122.25;5041782;28;20306;-68
2021/12/06 03:28:10;;;;;;;35.80;26.23;;;;;;;3.00;78.55;101127.03;5041965;28;20178;-68
2021/12/06 03:30:36;;;;;;;42.13;29.53;;;;;;;3.07;79.29;101124.72;5043159;28;20524;-68
2021/12/06 03:33:01;;;;;;;37.03;26.47;;;;;;;2.89;79.64;101128.19;5031189;28;20477;-70
2021/12/06 03:35:26;;;;;;;35.73;26.13;;;;;;;3.06;79.45;101131.56;5042576;28;20174;-68
2021/12/06 03:37:52;;;;;;;38.40;26.87;;;;;;;3.36;77.21;101132.06;5041272;28;20186;-69
2021/12/06 03:40:17;;;;;;;38.07;27.03;;;;;;;2.96;80.29;101139.66;5041680;28;20269;-68
2021/12/06 03:42:43;;;;;;;37.60;26.80;;;;;;;3.31;77.94;101145.56;5041855;28;20240;-68
2021/12/06 03:45:09;;;;;;;41.60;29.60;;;;;;;3.34;76.91;101143.13;5042289;28;20185;-70
2021/12/06 03:47:35;;;;;;;35.00;27.90;;;;;;;3.27;77.83;101152.25;5041676;28;20416;-68
2021/12/06 03:50:02;;;;;;;41.97;28.77;;;;;;;3.27;77.71;101152.25;5041497;28;20431;-67
2021/12/06 03:52:27;;;;;;;38.10;27.53;;;;;;;3.53;76.87;101147.41;5031988;28;20235;-68
2021/12/06 03:54:54;;;;;;;24.83;17.77;;;;;;;6.57;92.57;101137.56;5021552;28;20432;-65
2021/12/06 03:57:20;;;;;;;28.40;20.37;;;;;;;10.84;78.95;101114.66;5020765;28;20171;-60
2021/12/06 03:59:46;;;;;;;30.77;24.33;;;;;;;10.36;68.51;101116.50;5022016;28;20422;-62
2021/12/06 04:02:11;;;;;;;29.03;24.60;;;;;;;5.55;67.55;101139.22;5034652;28;20491;-69
2021/12/06 04:04:37;;;;;;;29.93;22.93;;;;;;;3.29;76.24;101152.31;5021447;28;20738;-68
2021/12/06 04:07:03;;;;;;;29.07;24.10;;;;;;;3.23;77.70;101155.50;5021005;28;20220;-67
2021/12/06 04:09:29;;;;;;;28.43;22.37;;;;;;;3.59;77.18;101151.97;5021288;28;20415;-68
2021/12/06 04:11:54;;;;;;;28.07;23.07;;;;;;;3.56;76.60;101152.72;5038727;28;20772;-68
2021/12/06 04:14:19;;;;;;;28.27;22.33;;;;;;;2.78;79.53;101153.44;5040854;28;20186;-68
2021/12/06 04:16:45;;;;;;;32.00;23.73;;;;;;;2.75;80.83;101163.59;5040055;28;20186;-68
2021/12/06 04:19:10;;;;;;;31.70;23.73;;;;;;;3.01;80.20;101158.78;5041494;28;20174;-69
2021/12/06 04:21:37;;;;;;;32.10;23.57;;;;;;;3.44;78.51;101167.63;5028394;28;20261;-68
2021/12/06 04:24:02;;;;;;;32.50;23.83;;;;;;;2.78;81.32;101170.59;5020888;28;20529;-69
2021/12/06 04:26:28;;;;;;;30.27;22.80;;;;;;;3.00;80.07;101173.38;5021802;28;20444;-68
2021/12/06 04:29:00;;;;;;;31.73;23.43;;;;;;;2.79;81.08;101168.06;5028005;28;20180;-68
2021/12/06 04:31:33;;;;;;;32.43;24.47;;;;;;;2.78;80.96;101176.59;5039873;28;20225;-68
2021/12/06 04:33:59;;;;;;;32.20;23.60;;;;;;;2.77;81.59;101168.81;5040940;28;20675;-68
2021/12/06 04:36:25;;;;;;;34.60;24.33;;;;;;;2.66;82.42;101165.72;5040608;28;20436;-68
2021/12/06 04:38:50;;;;;;;28.37;23.03;;;;;;;2.35;82.93;101165.09;5033842;28;20205;-69
2021/12/06 04:41:16;;;;;;;32.03;23.37;;;;;;;2.46;83.18;101177.59;5020815;28;20190;-67
2021/12/06 04:43:41;;;;;;;29.27;22.20;;;;;;;2.14;83.48;101179.47;5020558;28;20175;-69
2021/12/06 04:46:07;;;;;;;27.97;21.60;;;;;;;2.51;83.59;101191.59;5020982;28;20193;-69
2021/12/06 04:48:32;;;;;;;29.53;21.00;;;;;;;2.22;83.78;101198.72;5024502;28;20178;-69
2021/12/06 04:50:58;;;;;;;28.90;21.23;;;;;;;2.35;82.57;101190.84;5040332;28;20166;-69
2021/12/06 04:53:27;;;;;;;30.20;21.17;;;;;;;2.26;83.17;101207.47;5039424;28;20202;-68
2021/12/06 04:56:16;;;;;;;30.10;22.20;;;;;;;1.96;84.03;101211.13;5040142;28;20170;-67
2021/12/06 04:58:53;;;;;;;32.47;22.03;;;;;;;2.60;82.48;101207.50;5037297;28;20529;-68
2021/12/06 05:01:24;;;;;;;28.30;20.50;;;;;;;2.50;84.22;101219.03;5020423;28;20413;-68
2021/12/06 05:03:51;;;;;;;29.00;20.80;;;;;;;2.92;81.06;101209.88;5024905;28;20437;-68
2021/12/06 05:06:20;;;;;;;27.20;20.27;;;;;;;2.19;82.94;101216.56;5039855;28;20494;-68
2021/12/06 05:08:49;;;;;;;26.33;19.70;;;;;;;2.36;84.31;101218.31;5036504;28;20448;-69
2021/12/06 05:11:15;;;;;;;29.43;19.93;;;;;;;1.88;85.08;101212.44;5020565;28;20460;-69
2021/12/06 05:13:44;;;;;;;26.60;18.90;;;;;;;1.78;86.48;101218.75;5019161;28;20456;-69
2021/12/06 05:16:10;;;;;;;25.80;18.60;;;;;;;2.64;84.00;101230.00;5020534;28;20464;-69
2021/12/06 05:18:35;;;;;;;22.17;16.90;;;;;;;1.90;85.59;101236.50;5022013;28;20402;-68
2021/12/06 05:21:00;;;;;;;25.30;15.60;;;;;;;1.68;86.23;101235.38;5039786;28;20209;-69
2021/12/06 05:23:26;;;;;;;27.47;19.47;;;;;;;2.08;85.08;101230.56;5038709;28;20212;-68
2021/12/06 05:25:51;;;;;;;26.90;17.60;;;;;;;2.18;85.46;101231.13;5039941;28;20277;-68
2021/12/06 05:28:21;;;;;;;25.47;18.70;;;;;;;1.97;87.06;101232.59;5039668;28;20220;-69
2021/12/06 05:30:48;;;;;;;23.90;16.80;;;;;;;1.67;86.81;101215.59;5039323;28;20433;-69
2021/12/06 05:33:27;;;;;;;25.10;18.40;;;;;;;2.10;86.34;101221.25;5040366;28;20488;-69
2021/12/06 05:35:53;;;;;;;27.83;19.50;;;;;;;2.55;83.90;101223.50;5038749;28;20683;-70
2021/12/06 05:38:18;;;;;;;23.40;18.00;;;;;;;2.59;83.53;101240.88;5039322;28;20405;-68
2021/12/06 05:40:45;;;;;;;23.17;17.70;;;;;;;2.59;83.57;101246.91;5020414;28;20225;-68
2021/12/06 05:43:10;;;;;;;24.10;18.23;;;;;;;2.27;84.53;101251.28;5019584;28;20175;-69
2021/12/06 05:45:37;;;;;;;25.13;17.80;;;;;;;2.17;83.89;101251.63;5020044;28;20428;-70
2021/12/06 05:48:04;;;;;;;24.27;15.90;;;;;;;1.77;84.27;101264.94;5020044;28;20167;-67
2021/12/06 05:50:29;;;;;;;28.10;19.47;;;;;;;2.63;83.95;101263.38;5035777;28;20833;-69
2021/12/06 05:52:55;;;;;;;25.47;18.30;;;;;;;2.22;85.20;101260.47;5039370;28;20513;-68
2021/12/06 05:55:22;;;;;;;28.37;19.30;;;;;;;2.38;83.35;101259.53;5038560;28;20182;-68
2021/12/06 05:57:48;;;;;;;28.63;18.60;;;;;;;2.34;83.10;101261.09;5039431;28;20174;-69
2021/12/06 06:00:17;;;;;;;27.47;18.90;;;;;;;2.32;82.67;101267.84;5024941;28;20525;-68
2021/12/06 06:02:43;;;;;;;28.90;18.57;;;;;;;1.70;85.42;101266.28;5021572;28;20178;-67
2021/12/06 06:05:09;;;;;;;23.17;17.33;;;;;;;2.02;85.37;101274.84;5039627;28;20413;-69
2021/12/06 06:07:35;;;;;;;24.77;18.23;;;;;;;2.01;84.85;101285.94;5039260;28;20825;-68
2021/12/06 06:10:00;;;;;;;24.40;17.47;;;;;;;2.00;84.42;101286.72;5026662;28;20434;-68
2021/12/06 06:12:26;;;;;;;26.93;16.83;;;;;;;2.07;83.41;101278.56;5019208;28;20579;-68
2021/12/06 06:14:52;;;;;;;23.87;17.20;;;;;;;1.97;84.67;101295.16;5019007;28;20433;-67
2021/12/06 06:17:19;;;;;;;23.00;16.40;;;;;;;1.73;86.07;101286.16;5018920;28;20190;-69
2021/12/06 06:19:54;;;;;;;24.60;17.33;;;;;;;2.20;82.75;101292.94;5028574;28;20504;-68
2021/12/06 06:22:20;;;;;;;25.30;18.53;;;;;;;2.01;84.27;101301.38;5038939;28;20436;-67
2021/12/06 06:24:46;;;;;;;24.63;17.70;;;;;;;2.00;84.73;101305.63;5038415;28;20424;-66
2021/12/06 06:27:11;;;;;;;25.77;17.33;;;;;;;2.31;84.46;101302.13;5038619;28;20201;-67
2021/12/06 06:29:36;;;;;;;25.10;18.40;;;;;;;2.61;81.98;101299.34;5030132;28;20210;-69
2021/12/06 06:32:04;;;;;;;25.13;17.60;;;;;;;2.08;84.39;101305.16;5018797;28;20420;-68
2021/12/06 06:34:29;;;;;;;24.50;18.33;;;;;;;1.97;83.45;101308.03;5028122;28;20563;-66
2021/12/06 06:36:55;;;;;;;27.53;18.73;;;;;;;2.45;82.50;101304.50;5038959;28;20465;-67
2021/12/06 06:39:22;;;;;;;29.67;17.97;;;;;;;1.66;83.21;101313.19;5049719;28;20231;-67
2021/12/06 06:41:49;;;;;;;25.90;18.70;;;;;;;2.30;82.71;101309.72;5053803;28;20170;-68
2021/12/06 06:44:15;;;;;;;29.37;19.40;;;;;;;2.90;79.50;101310.22;5056234;28;20821;-68
2021/12/06 06:46:42;;;;;;;26.40;18.80;;;;;;;2.06;82.54;101312.78;5058075;28;20408;-68
2021/12/06 06:49:08;;;;;;;28.40;19.13;;;;;;;2.12;81.65;101314.81;5058171;28;20709;-69
2021/12/06 06:51:33;;;;;;;19.37;15.30;;;;;;;1.82;84.12;101325.19;5043153;28;20480;-69
2021/12/06 06:53:59;;;;;;;30.80;18.80;;;;;;;1.94;85.79;101323.28;5038430;28;20413;-69
2021/12/06 06:56:25;;;;;;;26.53;17.43;;;;;;;1.25;84.87;101332.34;5056298;28;20276;-69
2021/12/06 06:58:50;;;;;;;23.47;16.90;;;;;;;1.77;83.96;101322.41;5058127;28;20170;-67
2021/12/06 07:01:17;;;;;;;22.93;16.73;;;;;;;1.94;83.53;101320.72;5057793;28;20179;-68
2021/12/06 07:03:42;;;;;;;24.67;16.90;;;;;;;1.70;83.46;101325.41;5057782;28;20484;-68
2021/12/06 07:06:08;;;;;;;26.60;16.20;;;;;;;1.96;83.41;101326.84;5057194;28;20407;-67
2021/12/06 07:08:34;;;;;;;25.90;16.00;;;;;;;1.78;83.06;101325.84;5044427;28;20184;-68
2021/12/06 07:11:00;;;;;;;23.90;16.57;;;;;;;1.57;84.56;101321.28;5037918;28;20257;-69
2021/12/06 07:13:27;;;;;;;19.90;14.77;;;;;;;1.53;84.46;101327.06;5037492;28;20194;-68
2021/12/06 07:15:53;;;;;;;24.13;16.73;;;;;;;2.00;84.77;101331.34;5041922;28;20839;-68
2021/12/06 07:18:19;;;;;;;26.93;17.27;;;;;;;2.49;81.87;101319.28;5037863;28;20827;-67
2021/12/06 07:20:44;;;;;;;21.63;17.00;;;;;;;2.27;81.05;101330.16;5037635;28;20409;-67
2021/12/06 07:23:10;;;;;;;21.70;16.47;;;;;;;1.86;83.37;101337.44;5038231;28;20220;-66
2021/12/06 07:25:36;;;;;;;22.47;15.93;;;;;;;1.97;83.34;101313.16;5034894;28;20174;-67
2021/12/06 07:28:03;;;;;;;23.77;16.17;;;;;;;2.43;83.13;101317.28;5033086;28;20453;-68
2021/12/06 07:30:31;;;;;;;24.83;17.07;;;;;;;2.59;82.06;101312.94;5053549;28;20174;-67
2021/12/06 07:32:57;;;;;;;22.27;15.37;;;;;;;2.39;80.23;101320.50;5035610;28;20491;-67
2021/12/06 07:35:23;;;;;;;27.00;16.67;;;;;;;1.91;83.13;101315.44;5031195;28;20442;-66
2021/12/06 07:37:49;;;;;;;20.97;15.10;;;;;;;2.40;81.28;101305.97;5046581;28;20496;-67
2021/12/06 07:40:16;;;;;;;20.60;14.23;;;;;;;1.99;81.03;101314.16;5055834;28;20650;-68
2021/12/06 07:42:41;;;;;;;21.50;15.90;;;;;;;1.99;82.29;101318.41;5051682;28;20453;-68
2021/12/06 07:45:08;;;;;;;21.30;16.00;;;;;;;1.81;83.15;101323.44;5037839;28;20504;-68
2021/12/06 07:47:37;;;;;;;24.67;16.43;;;;;;;2.60;80.27;101314.69;5027821;28;20183;-68
2021/12/06 07:50:03;;;;;;;22.90;15.60;;;;;;;2.06;82.19;101315.38;5028413;28;20428;-68
2021/12/06 07:52:29;;;;;;;19.67;14.90;;;;;;;2.13;81.90;101314.88;5024116;28;20495;-68
2021/12/06 07:54:58;;;;;;;23.03;15.30;;;;;;;1.84;83.43;101305.59;5019489;28;20446;-68
2021/12/06 07:57:23;;;;;;;23.07;15.53;;;;;;;2.09;80.80;101318.09;5036791;28;20224;-68
2021/12/06 07:59:49;;;;;;;17.87;14.43;;;;;;;1.97;80.73;101320.00;5021654;28;21966;-68
2021/12/06 08:02:16;;;;;;;19.43;15.23;;;;;;;1.87;82.71;101326.34;5030446;28;20213;-69
2021/12/06 08:04:42;;;;;;;21.13;16.00;;;;;;;2.22;81.37;101322.22;5036804;28;20198;-67
2021/12/06 08:07:07;;;;;;;24.73;15.63;;;;;;;2.03;81.48;101320.34;5055072;28;20459;-67
2021/12/06 08:09:33;;;;;;;17.20;13.90;;;;;;;1.61;82.64;101330.03;5022025;28;20202;-67
2021/12/06 08:11:59;;;;;;;19.50;15.80;;;;;;;1.62;82.97;101316.41;5025319;28;20539;-67
2021/12/06 08:14:24;;;;;;;20.33;15.67;;;;;;;1.67;82.71;101320.97;5035454;28;20224;-67
2021/12/06 08:16:50;;;;;;;21.10;15.40;;;;;;;2.93;78.03;101320.66;5032103;28;20834;-67
2021/12/06 08:19:15;;;;;;;21.90;14.60;;;;;;;2.15;79.89;101323.56;5052053;28;20277;-67
2021/12/06 08:21:40;;;;;;;20.33;14.83;;;;;;;3.23;76.93;101310.09;5058611;28;20193;-69
2021/12/06 08:24:07;;;;;;;19.13;14.67;;;;;;;2.76;78.14;101311.22;5040819;28;20166;-68
2021/12/06 08:26:41;;;;;;;19.57;14.63;;;;;;;2.36;79.75;101320.34;5041361;28;20158;-67
2021/12/06 08:29:07;;;;;;;18.83;15.40;;;;;;;3.44;76.20;101322.28;5040852;28;20424;-68
2021/12/06 08:31:37;;;;;;;18.37;13.63;;;;;;;3.27;75.99;101318.88;5040218;28;20594;-67
2021/12/06 08:34:02;;;;;;;18.90;15.50;;;;;;;2.58;79.07;101321.47;5031530;28;20672;-68
2021/12/06 08:36:28;;;;;;;17.40;15.50;;;;;;;2.89;77.05;101329.06;5032833;28;20439;-68
2021/12/06 08:38:54;;;;;;;18.77;15.07;;;;;;;3.54;75.83;101319.31;5022227;28;20266;-67
2021/12/06 08:41:24;;;;;;;21.47;15.53;;;;;;;3.14;76.84;101307.06;5020517;28;20175;-69
2021/12/06 08:43:53;;;;;;;18.43;14.97;;;;;;;3.39;76.79;101306.59;5020443;28;20669;-68
2021/12/06 08:46:22;;;;;;;19.17;14.57;;;;;;;3.08;76.25;101288.75;5021220;28;20459;-68
2021/12/06 08:48:50;;;;;;;19.83;15.27;;;;;;;3.46;76.21;101294.88;5020171;28;20687;-68
2021/12/06 08:51:25;;;;;;;18.03;14.27;;;;;;;2.09;80.24;101286.34;5020289;28;20461;-67
2021/12/06 08:53:50;;;;;;;24.03;15.87;;;;;;;1.84;80.39;101288.50;5020163;28;20465;-68
2021/12/06 08:56:15;;;;;;;19.60;14.47;;;;;;;2.23;79.55;101287.94;5020282;28;20453;-68
2021/12/06 08:58:41;;;;;;;20.17;15.13;;;;;;;3.00;79.98;101281.56;5020649;28;20398;-68
2021/12/06 09:01:07;;;;;;;21.07;14.40;;;;;;;2.43;79.83;101286.41;5020242;28;20475;-67
2021/12/06 09:03:34;;;;;;;21.27;16.33;;;;;;;2.65;79.48;101293.56;5020143;28;20396;-68
2021/12/06 09:06:01;;;;;;;20.20;16.37;;;;;;;2.97;79.27;101296.84;5022186;28;20476;-67
2021/12/06 09:08:27;;;;;;;21.50;16.00;;;;;;;2.49;78.28;101296.13;5020630;28;20504;-68
2021/12/06 09:10:53;;;;;;;20.97;16.50;;;;;;;2.27;80.69;101296.72;5020353;28;20438;-68
2021/12/06 09:13:21;;;;;;;23.03;16.80;;;;;;;2.71;78.17;101292.97;5020090;28;20449;-67
2021/12/06 09:15:46;;;;;;;23.90;17.40;;;;;;;3.39;76.00;101280.81;5019073;28;20414;-67
2021/12/06 09:18:12;;;;;;;21.70;15.50;;;;;;;1.89;80.30;101295.56;5019811;28;20754;-68
2021/12/06 09:20:41;;;;;;;20.57;16.63;;;;;;;2.86;80.23;101295.44;5020281;28;20579;-68
2021/12/06 09:23:08;;;;;;;18.30;14.93;;;;;;;3.27;77.95;101296.56;5019489;28;20266;-69
2021/12/06 09:25:34;;;;;;;21.30;17.17;;;;;;;2.92;76.49;101292.28;5018947;28;20422;-70
2021/12/06 09:28:00;;;;;;;22.20;15.87;;;;;;;2.28;77.14;101303.63;5037827;28;20432;-68
2021/12/06 09:30:29;;;;;;;28.13;16.40;;;;;;;1.63;79.32;101313.91;5039350;28;20425;-67
2021/12/06 09:32:56;;;;;;;19.70;15.20;;;;;;;2.44;78.81;101307.91;5039428;28;20572;-68
2021/12/06 09:35:26;;;;;;;24.10;16.93;;;;;;;2.53;79.59;101306.69;5039016;28;20431;-68
2021/12/06 09:37:52;;;;;;;22.30;17.03;;;;;;;2.76;76.45;101306.06;5039410;28;20413;-67
2021/12/06 09:40:18;;;;;;;22.63;16.70;;;;;;;2.85;75.97;101303.97;5039317;28;20435;-68
2021/12/06 09:42:44;;;;;;;22.23;16.77;;;;;;;3.43;74.38;101312.78;5039344;28;20408;-67
2021/12/06 09:45:14;;;;;;;26.63;18.43;;;;;;;3.06;75.91;101311.88;5039059;28;20417;-68
2021/12/06 09:47:40;;;;;;;25.33;18.60;;;;;;;3.53;75.23;101312.38;5039425;28;20420;-67
2021/12/06 09:50:06;;;;;;;24.97;18.90;;;;;;;3.77;73.72;101316.94;5039481;28;20409;-68
2021/12/06 09:52:32;;;;;;;27.63;17.50;;;;;;;3.87;72.46;101319.16;5038465;28;20469;-67
2021/12/06 09:54:58;;;;;;;24.17;18.57;;;;;;;4.38;70.77;101318.84;5038998;28;20420;-68
2021/12/06 09:57:23;;;;;;;24.33;18.17;;;;;;;5.47;66.99;101307.03;5039482;28;20491;-67
2021/12/06 09:59:49;;;;;;;20.70;17.90;;;;;;;4.98;68.46;101311.09;5038871;28;20170;-67
2021/12/06 10:02:18;;;;;;;21.23;17.77;;;;;;;5.47;65.35;101324.25;5038282;28;20257;-68
2021/12/06 10:04:50;;;;;;;21.30;17.70;;;;;;;4.70;68.98;101319.38;5038926;28;20202;-69
2021/12/06 10:07:16;;;;;;;22.70;17.37;;;;;;;4.82;69.22;101329.34;5038539;28;20434;-68
2021/12/06 10:09:44;;;;;;;24.47;17.77;;;;;;;3.95;70.49;101329.81;5038608;28;20437;-70
2021/12/06 10:12:10;;;;;;;25.40;19.90;;;;;;;4.16;69.84;101327.34;5029180;28;20495;-68
2021/12/06 10:14:37;;;;;;;23.10;18.70;;;;;;;3.77;70.25;101322.09;5022483;28;20452;-68
2021/12/06 10:17:06;;;;;;;23.53;19.70;;;;;;;3.39;72.65;101334.94;5021447;28;20421;-68
2021/12/06 10:19:32;;;;;;;27.20;20.90;;;;;;;3.65;72.24;101331.03;5030007;28;20520;-69
2021/12/06 10:21:58;;;;;;;30.77;20.97;;;;;;;3.36;71.55;101324.50;5049236;28;20427;-68
2021/12/06 10:24:27;;;;;;;26.10;19.97;;;;;;;3.52;72.21;101329.56;5058078;28;20416;-68
2021/12/06 10:27:08;;;;;;;30.50;21.20;;;;;;;3.10;72.78;101333.50;5039741;28;20185;-71
2021/12/06 10:29:39;;;;;;;31.80;21.90;;;;;;;3.09;71.81;101331.75;5034109;28;20451;-69
2021/12/06 10:32:12;;;;;;;29.50;21.60;;;;;;;3.14;72.04;101335.41;5018545;28;20514;-66
2021/12/06 10:34:37;;;;;;;29.73;23.30;;;;;;;3.13;73.19;101325.94;5024205;28;20424;-65
2021/12/06 10:37:02;;;;;;;29.50;22.47;;;;;;;2.83;73.71;101324.50;5037488;28;20675;-67
2021/12/06 10:39:35;;;;;;;33.67;23.80;;;;;;;2.67;74.89;101311.66;5031448;28;20178;-66
2021/12/06 10:42:02;;;;;;;36.77;23.73;;;;;;;2.11;76.87;101307.88;5027168;28;20252;-67
2021/12/06 10:44:27;;;;;;;33.43;22.00;;;;;;;2.12;76.23;101289.06;5054608;28;20523;-66
2021/12/06 10:46:53;;;;;;;31.87;24.03;;;;;;;2.78;73.94;101287.31;5055148;28;20496;-66
2021/12/06 10:49:22;;;;;;;32.57;24.00;;;;;;;2.47;74.08;101285.75;5038779;28;20172;-67
2021/12/06 10:51:48;;;;;;;32.47;24.23;;;;;;;2.40;74.90;101275.97;5032139;28;20301;-66
2021/12/06 10:54:21;;;;;;;37.47;26.60;;;;;;;2.62;74.28;101267.63;5050270;28;20737;-71
2021/12/06 10:56:51;;;;;;;42.40;27.07;;;;;;;2.41;73.56;101246.88;5058148;28;20173;-67
2021/12/06 10:59:19;;;;;;;34.00;24.93;;;;;;;2.45;74.20;101245.31;5018014;28;20389;-67
2021/12/06 11:01:46;;;;;;;32.90;23.67;;;;;;;2.21;74.65;101244.97;5018642;28;20531;-68
2021/12/06 11:04:16;;;;;;;38.20;24.87;;;;;;;2.30;74.74;101228.31;5018910;28;20819;-67
2021/12/06 11:06:45;;;;;;;36.20;25.13;;;;;;;1.83;76.32;101237.00;5018685;28;20418;-67
2021/12/06 11:09:14;;;;;;;34.10;24.00;;;;;;;2.21;74.97;101227.81;5021662;28;20421;-68
2021/12/06 11:11:49;;;;;;;34.50;24.30;;;;;;;2.16;75.45;101234.41;5056728;28;20869;-66
2021/12/06 11:14:22;;;;;;;36.20;25.07;;;;;;;2.25;74.76;101228.88;5046337;28;20425;-67
2021/12/06 11:16:53;;;;;;;35.03;23.60;;;;;;;2.29;74.96;101231.66;5037117;28;20408;-69
2021/12/06 11:19:22;;;;;;;33.87;24.37;;;;;;;2.27;74.96;101238.41;5052301;28;20506;-66
2021/12/06 11:21:51;;;;;;;37.47;24.53;;;;;;;2.13;75.42;101239.41;5052789;28;20444;-67
2021/12/06 11:24:24;;;;;;;36.00;24.97;;;;;;;1.97;76.03;101233.44;5041871;28;20420;-68
2021/12/06 11:27:03;;;;;;;36.63;26.53;;;;;;;1.98;76.13;101237.78;5057838;28;20408;-66
2021/12/06 11:29:38;;;;;;;39.20;27.63;;;;;;;1.97;77.14;101246.31;5053463;28;20398;-68
2021/12/06 11:32:12;;;;;;;41.60;28.50;;;;;;;2.81;74.13;101242.81;5057663;28;20559;-68
2021/12/06 11:34:42;;;;;;;36.33;25.33;;;;;;;2.22;75.85;101242.47;5053661;28;20420;-68
2021/12/06 11:37:13;;;;;;;39.03;26.53;;;;;;;2.04;77.17;101237.22;5041670;28;20431;-69